sensor_id;sensor_type;location;lat;lon;timestamp;pressure;altitude;pressure_sealevel;temperature;humidity
72359;BME280;60317;48.880;-0.862;2022-07-05T00:01:25;101221.81;;;21.20;48.47
72359;BME280;60317;48.880;-0.862;2022-07-05T00:03:51;101216.06;;;21.25;48.22
72359;BME280;60317;48.880;-0.862;2022-07-05T00:06:18;101218.38;;;21.30;48.37
72359;BME280;60317;48.880;-0.862;2022-07-05T00:08:45;101218.38;;;21.30;48.30
72359;BME280;60317;48.880;-0.862;2022-07-05T00:11:12;101221.81;;;21.32;48.29
72359;BME280;60317;48.880;-0.862;2022-07-05T00:13:39;101220.97;;;21.31;48.50
72359;BME280;60317;48.880;-0.862;2022-07-05T00:16:05;101223.66;;;21.31;48.52
72359;BME280;60317;48.880;-0.862;2022-07-05T00:18:32;101221.69;;;21.33;48.62
72359;BME280;60317;48.880;-0.862;2022-07-05T00:20:59;101229.03;;;21.31;48.49
72359;BME280;60317;48.880;-0.862;2022-07-05T00:23:25;101223.50;;;21.21;48.55
72359;BME280;60317;48.880;-0.862;2022-07-05T00:25:53;101222.16;;;21.16;48.33
72359;BME280;60317;48.880;-0.862;2022-07-05T00:28:20;101224.59;;;21.19;48.25
72359;BME280;60317;48.880;-0.862;2022-07-05T00:30:46;101216.19;;;21.24;48.25
72359;BME280;60317;48.880;-0.862;2022-07-05T00:33:13;101213.38;;;21.25;48.07
72359;BME280;60317;48.880;-0.862;2022-07-05T00:35:39;101215.94;;;21.27;48.27
72359;BME280;60317;48.880;-0.862;2022-07-05T00:38:06;101213.13;;;21.28;48.27
72359;BME280;60317;48.880;-0.862;2022-07-05T00:40:32;101212.16;;;21.29;48.22
72359;BME280;60317;48.880;-0.862;2022-07-05T00:43:00;101215.44;;;21.33;48.23
72359;BME280;60317;48.880;-0.862;2022-07-05T00:45:27;101218.28;;;21.31;48.26
72359;BME280;60317;48.880;-0.862;2022-07-05T00:47:54;101215.59;;;21.20;48.26
72359;BME280;60317;48.880;-0.862;2022-07-05T00:50:20;101217.88;;;21.13;48.28
72359;BME280;60317;48.880;-0.862;2022-07-05T00:52:47;101214.94;;;21.16;48.20
72359;BME280;60317;48.880;-0.862;2022-07-05T00:55:15;101224.50;;;21.20;47.99
72359;BME280;60317;48.880;-0.862;2022-07-05T00:57:42;101217.03;;;21.24;47.89
72359;BME280;60317;48.880;-0.862;2022-07-05T01:00:15;101217.91;;;21.25;48.02
72359;BME280;60317;48.880;-0.862;2022-07-05T01:02:41;101216.06;;;21.25;48.05
72359;BME280;60317;48.880;-0.862;2022-07-05T01:05:08;101221.31;;;21.27;48.10
72359;BME280;60317;48.880;-0.862;2022-07-05T01:07:35;101221.19;;;21.28;48.05
72359;BME280;60317;48.880;-0.862;2022-07-05T01:10:01;101208.59;;;21.29;48.03
72359;BME280;60317;48.880;-0.862;2022-07-05T01:12:28;101211.28;;;21.17;48.02
72359;BME280;60317;48.880;-0.862;2022-07-05T01:14:55;101209.06;;;21.11;47.98
72359;BME280;60317;48.880;-0.862;2022-07-05T01:17:24;101210.44;;;21.17;47.93
72359;BME280;60317;48.880;-0.862;2022-07-05T01:19:50;101212.16;;;21.18;47.74
72359;BME280;60317;48.880;-0.862;2022-07-05T01:22:18;101213.63;;;21.22;48.00
72359;BME280;60317;48.880;-0.862;2022-07-05T01:24:47;101209.94;;;21.23;47.77
72359;BME280;60317;48.880;-0.862;2022-07-05T01:27:14;101201.78;;;21.25;47.77
72359;BME280;60317;48.880;-0.862;2022-07-05T01:29:41;101212.38;;;21.26;47.71
72359;BME280;60317;48.880;-0.862;2022-07-05T01:32:08;101211.44;;;21.27;47.85
72359;BME280;60317;48.880;-0.862;2022-07-05T01:34:37;101207.75;;;21.28;48.08
72359;BME280;60317;48.880;-0.862;2022-07-05T01:37:04;101204.19;;;21.16;47.89
72359;BME280;60317;48.880;-0.862;2022-07-05T01:39:30;101208.31;;;21.09;47.90
72359;BME280;60317;48.880;-0.862;2022-07-05T01:41:58;101203.56;;;21.13;47.68
72359;BME280;60317;48.880;-0.862;2022-07-05T01:44:25;101210.44;;;21.17;47.73
72359;BME280;60317;48.880;-0.862;2022-07-05T01:46:55;101210.22;;;21.20;47.61
72359;BME280;60317;48.880;-0.862;2022-07-05T01:49:25;101209.22;;;21.21;47.51
72359;BME280;60317;48.880;-0.862;2022-07-05T01:51:57;101209.94;;;21.23;47.56
72359;BME280;60317;48.880;-0.862;2022-07-05T01:54:25;101199.19;;;21.23;47.62
72359;BME280;60317;48.880;-0.862;2022-07-05T01:56:52;101208.22;;;21.22;47.67
72359;BME280;60317;48.880;-0.862;2022-07-05T01:59:20;101206.28;;;21.24;47.71
72359;BME280;60317;48.880;-0.862;2022-07-05T02:01:46;101203.09;;;21.19;47.80
72359;BME280;60317;48.880;-0.862;2022-07-05T02:04:13;101201.25;;;21.08;47.70
72359;BME280;60317;48.880;-0.862;2022-07-05T02:06:39;101202.00;;;21.10;47.54
72359;BME280;60317;48.880;-0.862;2022-07-05T02:09:07;101198.19;;;21.13;47.55
72359;BME280;60317;48.880;-0.862;2022-07-05T02:11:34;101193.44;;;21.16;47.54
72359;BME280;60317;48.880;-0.862;2022-07-05T02:14:00;101197.72;;;21.19;47.44
72359;BME280;60317;48.880;-0.862;2022-07-05T02:16:28;101202.13;;;21.20;47.46
72359;BME280;60317;48.880;-0.862;2022-07-05T02:18:56;101196.75;;;21.20;47.52
72359;BME280;60317;48.880;-0.862;2022-07-05T02:21:22;101196.63;;;21.21;47.50
72359;BME280;60317;48.880;-0.862;2022-07-05T02:23:49;101196.75;;;21.20;47.58
72359;BME280;60317;48.880;-0.862;2022-07-05T02:26:16;101193.09;;;21.10;47.71
72359;BME280;60317;48.880;-0.862;2022-07-05T02:28:42;101190.72;;;21.05;47.61
72359;BME280;60317;48.880;-0.862;2022-07-05T02:31:09;101190.50;;;21.08;47.40
72359;BME280;60317;48.880;-0.862;2022-07-05T02:33:37;101192.81;;;21.13;47.21
72359;BME280;60317;48.880;-0.862;2022-07-05T02:36:06;101190.88;;;21.15;47.21
72359;BME280;60317;48.880;-0.862;2022-07-05T02:38:32;101188.06;;;21.16;47.32
72359;BME280;60317;48.880;-0.862;2022-07-05T02:40:59;101187.09;;;21.17;47.43
72359;BME280;60317;48.880;-0.862;2022-07-05T02:43:25;101183.44;;;21.18;47.25
72359;BME280;60317;48.880;-0.862;2022-07-05T02:45:52;101185.13;;;21.19;47.38
72359;BME280;60317;48.880;-0.862;2022-07-05T02:48:19;101188.69;;;21.20;47.37
72359;BME280;60317;48.880;-0.862;2022-07-05T02:50:47;101195.78;;;21.10;47.41
72359;BME280;60317;48.880;-0.862;2022-07-05T02:53:14;101191.84;;;21.03;47.37
72359;BME280;60317;48.880;-0.862;2022-07-05T02:55:41;101188.91;;;21.06;47.16
72359;BME280;60317;48.880;-0.862;2022-07-05T02:58:07;101187.72;;;21.10;47.24
72359;BME280;60317;48.880;-0.862;2022-07-05T03:00:34;101192.94;;;21.11;47.10
72359;BME280;60317;48.880;-0.862;2022-07-05T03:03:01;101182.94;;;21.13;47.18
72359;BME280;60317;48.880;-0.862;2022-07-05T03:05:27;101179.28;;;21.14;47.10
72359;BME280;60317;48.880;-0.862;2022-07-05T03:07:55;101185.38;;;21.16;47.22
72359;BME280;60317;48.880;-0.862;2022-07-05T03:10:21;101182.69;;;21.16;47.09
72359;BME280;60317;48.880;-0.862;2022-07-05T03:12:48;101183.56;;;21.17;47.20
72359;BME280;60317;48.880;-0.862;2022-07-05T03:15:14;101188.78;;;21.07;47.33
72359;BME280;60317;48.880;-0.862;2022-07-05T03:17:41;101188.41;;;21.01;47.12
72359;BME280;60317;48.880;-0.862;2022-07-05T03:20:08;101184.63;;;21.03;47.01
72359;BME280;60317;48.880;-0.862;2022-07-05T03:22:35;101194.16;;;21.07;47.00
72359;BME280;60317;48.880;-0.862;2022-07-05T03:25:04;101188.44;;;21.12;46.90
72359;BME280;60317;48.880;-0.862;2022-07-05T03:27:31;101189.41;;;21.11;46.98
72359;BME280;60317;48.880;-0.862;2022-07-05T03:29:58;101191.13;;;21.12;46.99
72359;BME280;60317;48.880;-0.862;2022-07-05T03:32:24;101198.19;;;21.13;46.97
72359;BME280;60317;48.880;-0.862;2022-07-05T03:34:51;101198.94;;;21.15;47.00
72359;BME280;60317;48.880;-0.862;2022-07-05T03:37:17;101196.38;;;21.13;46.91
72359;BME280;60317;48.880;-0.862;2022-07-05T03:39:44;101193.56;;;21.04;47.15
72359;BME280;60317;48.880;-0.862;2022-07-05T03:42:12;101198.53;;;20.97;47.13
72359;BME280;60317;48.880;-0.862;2022-07-05T03:44:38;101205.38;;;21.01;46.84
72359;BME280;60317;48.880;-0.862;2022-07-05T03:47:05;101202.47;;;21.04;46.81
72359;BME280;60317;48.880;-0.862;2022-07-05T03:49:32;101208.59;;;21.06;46.86
72359;BME280;60317;48.880;-0.862;2022-07-05T03:51:58;101202.09;;;21.09;46.75
72359;BME280;60317;48.880;-0.862;2022-07-05T03:54:24;101212.84;;;21.09;46.86
72359;BME280;60317;48.880;-0.862;2022-07-05T03:56:51;101204.69;;;21.10;46.83
72359;BME280;60317;48.880;-0.862;2022-07-05T03:59:19;101204.19;;;21.16;46.71
72359;BME280;60317;48.880;-0.862;2022-07-05T04:01:45;101205.31;;;21.14;46.75
72359;BME280;60317;48.880;-0.862;2022-07-05T04:04:12;101207.38;;;21.10;46.99
72359;BME280;60317;48.880;-0.862;2022-07-05T04:06:38;101201.09;;;20.98;46.90
72359;BME280;60317;48.880;-0.862;2022-07-05T04:09:05;101212.84;;;20.97;46.84
72359;BME280;60317;48.880;-0.862;2022-07-05T04:11:32;101201.72;;;21.02;46.71
72359;BME280;60317;48.880;-0.862;2022-07-05T04:13:58;101214.19;;;21.03;46.81
72359;BME280;60317;48.880;-0.862;2022-07-05T04:16:26;101214.19;;;21.03;46.69
72359;BME280;60317;48.880;-0.862;2022-07-05T04:18:52;101210.41;;;21.06;46.66
72359;BME280;60317;48.880;-0.862;2022-07-05T04:21:19;101213.09;;;21.06;46.71
72359;BME280;60317;48.880;-0.862;2022-07-05T04:23:45;101222.75;;;21.08;46.75
72359;BME280;60317;48.880;-0.862;2022-07-05T04:26:12;101219.22;;;21.08;46.88
72359;BME280;60317;48.880;-0.862;2022-07-05T04:28:39;101222.88;;;21.07;46.78
72359;BME280;60317;48.880;-0.862;2022-07-05T04:31:05;101220.91;;;20.97;46.62
72359;BME280;60317;48.880;-0.862;2022-07-05T04:33:33;101222.88;;;20.95;46.79
72359;BME280;60317;48.880;-0.862;2022-07-05T04:35:59;101229.72;;;21.00;46.83
72359;BME280;60317;48.880;-0.862;2022-07-05T04:38:26;101225.41;;;20.97;46.82
72359;BME280;60317;48.880;-0.862;2022-07-05T04:40:52;101228.47;;;20.92;46.50
72359;BME280;60317;48.880;-0.862;2022-07-05T04:43:19;101231.38;;;20.89;46.25
72359;BME280;60317;48.880;-0.862;2022-07-05T04:45:46;101234.06;;;20.89;46.31
72359;BME280;60317;48.880;-0.862;2022-07-05T04:48:18;101235.03;;;20.88;46.44
72359;BME280;60317;48.880;-0.862;2022-07-05T04:50:46;101232.09;;;20.80;46.15
72359;BME280;60317;48.880;-0.862;2022-07-05T04:53:12;101232.31;;;20.77;46.27
72359;BME280;60317;48.880;-0.862;2022-07-05T04:55:39;101236.75;;;20.78;46.29
72359;BME280;60317;48.880;-0.862;2022-07-05T04:58:05;101234.06;;;20.78;46.47
72359;BME280;60317;48.880;-0.862;2022-07-05T05:00:32;101235.75;;;20.79;46.42
72359;BME280;60317;48.880;-0.862;2022-07-05T05:02:59;101231.38;;;20.78;46.37
72359;BME280;60317;48.880;-0.862;2022-07-05T05:05:25;101230.38;;;20.79;46.62
72359;BME280;60317;48.880;-0.862;2022-07-05T05:07:53;101227.69;;;20.79;46.70
72359;BME280;60317;48.880;-0.862;2022-07-05T05:10:19;101230.84;;;20.73;46.81
72359;BME280;60317;48.880;-0.862;2022-07-05T05:12:46;101236.44;;;20.70;46.71
72359;BME280;60317;48.880;-0.862;2022-07-05T05:15:12;101230.00;;;20.72;46.80
72359;BME280;60317;48.880;-0.862;2022-07-05T05:17:41;101236.34;;;20.71;47.08
72359;BME280;60317;48.880;-0.862;2022-07-05T05:20:10;101238.03;;;20.72;46.80
72359;BME280;60317;48.880;-0.862;2022-07-05T05:22:37;101236.97;;;20.75;47.11
72359;BME280;60317;48.880;-0.862;2022-07-05T05:25:06;101242.34;;;20.75;47.09
72359;BME280;60317;48.880;-0.862;2022-07-05T05:27:32;101237.81;;;20.76;47.15
72359;BME280;60317;48.880;-0.862;2022-07-05T05:29:59;101249.19;;;20.79;47.18
72359;BME280;60317;48.880;-0.862;2022-07-05T05:32:26;101252.84;;;20.78;47.12
72359;BME280;60317;48.880;-0.862;2022-07-05T05:34:52;101256.22;;;20.69;47.42
72359;BME280;60317;48.880;-0.862;2022-07-05T05:37:19;101258.91;;;20.69;47.37
72359;BME280;60317;48.880;-0.862;2022-07-05T05:39:45;101259.66;;;20.71;47.15
72359;BME280;60317;48.880;-0.862;2022-07-05T05:42:14;101267.47;;;20.74;47.22
72359;BME280;60317;48.880;-0.862;2022-07-05T05:44:40;101266.63;;;20.73;47.09
72359;BME280;60317;48.880;-0.862;2022-07-05T05:47:07;101270.06;;;20.76;47.38
72359;BME280;60317;48.880;-0.862;2022-07-05T05:49:38;101273.47;;;20.78;47.39
72359;BME280;60317;48.880;-0.862;2022-07-05T05:52:05;101272.84;;;20.74;47.27
72359;BME280;60317;48.880;-0.862;2022-07-05T05:54:32;101269.66;;;20.69;47.52
72359;BME280;60317;48.880;-0.862;2022-07-05T05:56:58;101269.03;;;20.65;47.58
72359;BME280;60317;48.880;-0.862;2022-07-05T05:59:26;101269.25;;;20.62;47.50
72359;BME280;60317;48.880;-0.862;2022-07-05T06:01:52;101276.25;;;20.65;47.67
72359;BME280;60317;48.880;-0.862;2022-07-05T06:04:19;101275.25;;;20.66;47.70
72359;BME280;60317;48.880;-0.862;2022-07-05T06:06:46;101269.78;;;20.67;47.93
72359;BME280;60317;48.880;-0.862;2022-07-05T06:09:12;101266.22;;;20.67;47.90
72359;BME280;60317;48.880;-0.862;2022-07-05T06:11:39;101273.31;;;20.68;47.96
72359;BME280;60317;48.880;-0.862;2022-07-05T06:14:05;101265.28;;;20.68;47.95
72359;BME280;60317;48.880;-0.862;2022-07-05T06:16:33;101268.63;;;20.59;48.46
72359;BME280;60317;48.880;-0.862;2022-07-05T06:19:00;101282.19;;;20.57;48.59
72359;BME280;60317;48.880;-0.862;2022-07-05T06:21:27;101276.47;;;20.62;48.59
72359;BME280;60317;48.880;-0.862;2022-07-05T06:23:54;101277.84;;;20.67;48.54
72359;BME280;60317;48.880;-0.862;2022-07-05T06:26:21;101284.06;;;20.68;48.61
72359;BME280;60317;48.880;-0.862;2022-07-05T06:28:47;101291.16;;;20.69;48.82
72359;BME280;60317;48.880;-0.862;2022-07-05T06:31:14;101294.59;;;20.71;48.73
72359;BME280;60317;48.880;-0.862;2022-07-05T06:33:41;101297.81;;;20.63;48.86
72359;BME280;60317;48.880;-0.862;2022-07-05T06:36:08;101299.59;;;20.52;49.82
72359;BME280;60317;48.880;-0.862;2022-07-05T06:38:35;101307.97;;;20.47;50.06
72359;BME280;60317;48.880;-0.862;2022-07-05T06:41:01;101309.06;;;20.44;50.74
72359;BME280;60317;48.880;-0.862;2022-07-05T06:43:28;101307.97;;;20.47;50.80
72359;BME280;60317;48.880;-0.862;2022-07-05T06:45:54;101312.50;;;20.46;50.50
72359;BME280;60317;48.880;-0.862;2022-07-05T06:48:21;101311.50;;;20.47;50.79
72359;BME280;60317;48.880;-0.862;2022-07-05T06:50:49;101304.19;;;20.49;50.98
72359;BME280;60317;48.880;-0.862;2022-07-05T06:53:15;101303.53;;;20.59;50.92
72359;BME280;60317;48.880;-0.862;2022-07-05T06:55:42;101312.19;;;20.51;51.27
72359;BME280;60317;48.880;-0.862;2022-07-05T06:58:08;101312.25;;;20.49;50.82
72359;BME280;60317;48.880;-0.862;2022-07-05T07:00:37;101308.69;;;20.49;50.90
72359;BME280;60317;48.880;-0.862;2022-07-05T07:03:24;101308.16;;;20.57;50.50
72359;BME280;60317;48.880;-0.862;2022-07-05T07:06:11;101312.38;;;20.61;50.31
72359;BME280;60317;48.880;-0.862;2022-07-05T07:08:38;101314.69;;;20.65;50.45
72359;BME280;60317;48.880;-0.862;2022-07-05T07:11:05;101313.72;;;20.66;49.94
72359;BME280;60317;48.880;-0.862;2022-07-05T07:13:31;101315.44;;;20.67;50.48
72359;BME280;60317;48.880;-0.862;2022-07-05T07:15:58;101315.69;;;20.64;50.50
72359;BME280;60317;48.880;-0.862;2022-07-05T07:18:24;101321.53;;;20.69;50.63
72359;BME280;60317;48.880;-0.862;2022-07-05T07:20:51;101314.34;;;20.70;50.72
72359;BME280;60317;48.880;-0.862;2022-07-05T07:23:19;101322.31;;;20.71;50.55
72359;BME280;60317;48.880;-0.862;2022-07-05T07:25:45;101320.47;;;20.72;50.60
72359;BME280;60317;48.880;-0.862;2022-07-05T07:28:12;101335.38;;;20.76;50.53
72359;BME280;60317;48.880;-0.862;2022-07-05T07:30:38;101327.19;;;20.78;50.76
72359;BME280;60317;48.880;-0.862;2022-07-05T07:33:05;101339.47;;;20.82;50.64
72359;BME280;60317;48.880;-0.862;2022-07-05T07:35:38;101331.94;;;20.74;51.22
72359;BME280;60317;48.880;-0.862;2022-07-05T07:38:04;101338.81;;;20.78;50.77
72359;BME280;60317;48.880;-0.862;2022-07-05T07:40:32;101342.00;;;20.83;50.90
72359;BME280;60317;48.880;-0.862;2022-07-05T07:42:59;101340.81;;;20.87;50.73
72359;BME280;60317;48.880;-0.862;2022-07-05T07:45:25;101343.50;;;20.87;50.97
72359;BME280;60317;48.880;-0.862;2022-07-05T07:47:52;101345.94;;;20.90;50.82
72359;BME280;60317;48.880;-0.862;2022-07-05T07:50:18;101349.28;;;20.94;50.68
72359;BME280;60317;48.880;-0.862;2022-07-05T07:52:45;101350.34;;;20.91;51.10
72359;BME280;60317;48.880;-0.862;2022-07-05T07:55:11;101342.78;;;20.85;51.09
72359;BME280;60317;48.880;-0.862;2022-07-05T07:57:39;101344.13;;;20.91;50.55
72359;BME280;60317;48.880;-0.862;2022-07-05T08:00:06;101348.19;;;20.96;50.68
72359;BME280;60317;48.880;-0.862;2022-07-05T08:02:33;101353.34;;;21.00;50.84
72359;BME280;60317;48.880;-0.862;2022-07-05T08:04:59;101346.00;;;21.02;50.70
72359;BME280;60317;48.880;-0.862;2022-07-05T08:07:26;101344.06;;;21.04;50.45
72359;BME280;60317;48.880;-0.862;2022-07-05T08:09:52;101349.72;;;20.88;51.33
72359;BME280;60317;48.880;-0.862;2022-07-05T08:12:19;101356.66;;;20.79;51.71
72359;BME280;60317;48.880;-0.862;2022-07-05T08:14:47;101351.31;;;20.90;51.32
72359;BME280;60317;48.880;-0.862;2022-07-05T08:17:14;101355.88;;;21.01;50.90
72359;BME280;60317;48.880;-0.862;2022-07-05T08:19:40;101349.47;;;21.15;50.67
72359;BME280;60317;48.880;-0.862;2022-07-05T08:22:07;101359.38;;;21.14;50.66
72359;BME280;60317;48.880;-0.862;2022-07-05T08:24:35;101356.69;;;21.14;50.39
72359;BME280;60317;48.880;-0.862;2022-07-05T08:27:02;101357.31;;;21.18;50.41
72359;BME280;60317;48.880;-0.862;2022-07-05T08:29:29;101359.00;;;21.19;50.16
72359;BME280;60317;48.880;-0.862;2022-07-05T08:31:57;101350.31;;;21.15;50.47
72359;BME280;60317;48.880;-0.862;2022-07-05T08:34:23;101347.16;;;21.10;50.48
72359;BME280;60317;48.880;-0.862;2022-07-05T08:36:50;101345.81;;;21.16;50.24
72359;BME280;60317;48.880;-0.862;2022-07-05T08:39:16;101349.28;;;21.29;49.91
72359;BME280;60317;48.880;-0.862;2022-07-05T08:41:49;101346.34;;;21.32;49.81
72359;BME280;60317;48.880;-0.862;2022-07-05T08:44:18;101345.38;;;21.33;49.79
72359;BME280;60317;48.880;-0.862;2022-07-05T08:46:46;101356.13;;;21.33;49.77
72359;BME280;60317;48.880;-0.862;2022-07-05T08:49:14;101363.28;;;21.34;49.89
72359;BME280;60317;48.880;-0.862;2022-07-05T08:51:42;101354.88;;;21.26;49.96
72359;BME280;60317;48.880;-0.862;2022-07-05T08:54:10;101354.25;;;21.23;49.92
72359;BME280;60317;48.880;-0.862;2022-07-05T08:56:37;101350.97;;;21.30;49.92
72359;BME280;60317;48.880;-0.862;2022-07-05T08:59:23;101354.31;;;21.34;49.69
72359;BME280;60317;48.880;-0.862;2022-07-05T09:01:50;101350.44;;;21.38;49.77
72359;BME280;60317;48.880;-0.862;2022-07-05T09:04:19;101358.38;;;21.39;49.61
72359;BME280;60317;48.880;-0.862;2022-07-05T09:06:47;101358.16;;;21.42;49.71
72359;BME280;60317;48.880;-0.862;2022-07-05T09:09:16;101355.47;;;21.42;49.57
72359;BME280;60317;48.880;-0.862;2022-07-05T09:11:43;101357.91;;;21.46;49.63
72359;BME280;60317;48.880;-0.862;2022-07-05T09:14:30;101363.00;;;21.37;49.71
72359;BME280;60317;48.880;-0.862;2022-07-05T09:16:57;101366.81;;;21.35;49.83
72359;BME280;60317;48.880;-0.862;2022-07-05T09:19:25;101362.53;;;21.43;49.45
72359;BME280;60317;48.880;-0.862;2022-07-05T09:22:01;101369.16;;;21.51;49.59
72359;BME280;60317;48.880;-0.862;2022-07-05T09:24:28;101359.03;;;21.54;49.58
72359;BME280;60317;48.880;-0.862;2022-07-05T09:27:01;101366.25;;;21.54;49.39
72359;BME280;60317;48.880;-0.862;2022-07-05T09:29:28;101370.41;;;21.58;49.07
72359;BME280;60317;48.880;-0.862;2022-07-05T09:32:22;101366.88;;;21.57;49.20
72359;BME280;60317;48.880;-0.862;2022-07-05T09:34:50;101369.69;;;21.56;49.28
72359;BME280;60317;48.880;-0.862;2022-07-05T09:37:17;101370.75;;;21.42;49.23
72359;BME280;60317;48.880;-0.862;2022-07-05T09:39:43;101371.47;;;21.44;49.32
72359;BME280;60317;48.880;-0.862;2022-07-05T09:42:13;101372.59;;;21.53;49.06
72359;BME280;60317;48.880;-0.862;2022-07-05T09:44:42;101359.88;;;21.55;49.07
72359;BME280;60317;48.880;-0.862;2022-07-05T09:47:10;101361.00;;;21.63;48.93
72359;BME280;60317;48.880;-0.862;2022-07-05T09:49:38;101353.03;;;21.62;48.98
72359;BME280;60317;48.880;-0.862;2022-07-05T09:52:29;101359.75;;;21.45;49.02
72359;BME280;60317;48.880;-0.862;2022-07-05T09:55:05;101353.94;;;21.27;49.27
72359;BME280;60317;48.880;-0.862;2022-07-05T09:57:33;101355.38;;;21.20;49.33
72359;BME280;60317;48.880;-0.862;2022-07-05T10:00:01;101356.84;;;21.24;49.26
72359;BME280;60317;48.880;-0.862;2022-07-05T10:02:35;101358.28;;;21.17;48.86
72359;BME280;60317;48.880;-0.862;2022-07-05T10:05:10;101358.75;;;21.11;49.18
72359;BME280;60317;48.880;-0.862;2022-07-05T10:07:39;101358.97;;;21.08;49.04
72359;BME280;60317;48.880;-0.862;2022-07-05T10:10:06;101351.91;;;21.07;49.46
72359;BME280;60317;48.880;-0.862;2022-07-05T10:12:36;101343.94;;;21.05;49.62
72359;BME280;60317;48.880;-0.862;2022-07-05T10:15:04;101346.63;;;21.05;49.63
72359;BME280;60317;48.880;-0.862;2022-07-05T10:17:36;101343.06;;;21.05;49.81
72359;BME280;60317;48.880;-0.862;2022-07-05T10:20:05;101342.34;;;21.03;49.93
72359;BME280;60317;48.880;-0.862;2022-07-05T10:22:35;101346.75;;;21.04;49.84
72359;BME280;60317;48.880;-0.862;2022-07-05T10:25:03;101357.84;;;20.99;49.85
72359;BME280;60317;48.880;-0.862;2022-07-05T10:27:31;101351.72;;;20.97;50.11
72359;BME280;60317;48.880;-0.862;2022-07-05T10:29:59;101357.97;;;20.97;49.97
72359;BME280;60317;48.880;-0.862;2022-07-05T10:32:28;101349.16;;;20.95;50.09
72359;BME280;60317;48.880;-0.862;2022-07-05T10:34:56;101346.34;;;20.97;50.14
72359;BME280;60317;48.880;-0.862;2022-07-05T10:37:26;101347.56;;;20.93;50.09
72359;BME280;60317;48.880;-0.862;2022-07-05T10:39:53;101347.78;;;20.90;50.13
72359;BME280;60317;48.880;-0.862;2022-07-05T10:42:21;101346.81;;;20.91;50.23
72359;BME280;60317;48.880;-0.862;2022-07-05T10:44:49;101344.97;;;20.91;50.21
72359;BME280;60317;48.880;-0.862;2022-07-05T10:47:16;101356.59;;;20.92;50.15
72359;BME280;60317;48.880;-0.862;2022-07-05T10:49:42;101342.28;;;20.91;50.10
72359;BME280;60317;48.880;-0.862;2022-07-05T10:52:22;101345.19;;;20.88;49.72
72359;BME280;60317;48.880;-0.862;2022-07-05T10:57:41;101347.56;;;20.93;49.73
72359;BME280;60317;48.880;-0.862;2022-07-05T11:00:09;101337.44;;;20.96;49.67
72359;BME280;60317;48.880;-0.862;2022-07-05T11:02:36;101346.22;;;20.98;49.58
72359;BME280;60317;48.880;-0.862;2022-07-05T11:05:03;101337.22;;;21.00;49.58
72359;BME280;60317;48.880;-0.862;2022-07-05T11:10:25;101341.25;;;21.05;49.02
72359;BME280;60317;48.880;-0.862;2022-07-05T11:12:53;101345.78;;;21.05;48.83
72359;BME280;60317;48.880;-0.862;2022-07-05T11:15:20;101344.78;;;21.06;49.19
72359;BME280;60317;48.880;-0.862;2022-07-05T11:17:46;101342.34;;;21.03;49.21
72359;BME280;60317;48.880;-0.862;2022-07-05T11:20:28;101339.66;;;21.03;49.22
72359;BME280;60317;48.880;-0.862;2022-07-05T11:23:11;101339.53;;;21.04;49.09
72359;BME280;60317;48.880;-0.862;2022-07-05T11:25:40;101334.28;;;21.03;49.37
72359;BME280;60317;48.880;-0.862;2022-07-05T11:28:13;101345.91;;;21.03;49.17
72359;BME280;60317;48.880;-0.862;2022-07-05T11:30:55;101340.53;;;21.03;49.10
72359;BME280;60317;48.880;-0.862;2022-07-05T11:33:32;101344.06;;;21.04;49.12
72359;BME280;60317;48.880;-0.862;2022-07-05T11:36:00;101338.69;;;21.04;49.13
72359;BME280;60317;48.880;-0.862;2022-07-05T11:38:27;101342.34;;;21.03;49.13
72359;BME280;60317;48.880;-0.862;2022-07-05T11:41:14;101338.69;;;21.04;49.07
72359;BME280;60317;48.880;-0.862;2022-07-05T11:43:42;101336.00;;;21.04;48.97
72359;BME280;60317;48.880;-0.862;2022-07-05T11:46:09;101345.03;;;21.03;48.97
72359;BME280;60317;48.880;-0.862;2022-07-05T11:48:56;101345.03;;;21.03;48.98
72359;BME280;60317;48.880;-0.862;2022-07-05T11:51:23;101341.59;;;21.01;49.06
72359;BME280;60317;48.880;-0.862;2022-07-05T11:53:50;101344.06;;;21.04;48.63
72359;BME280;60317;48.880;-0.862;2022-07-05T11:56:36;101336.09;;;21.02;48.82
72359;BME280;60317;48.880;-0.862;2022-07-05T11:59:17;101333.53;;;21.01;49.14
72359;BME280;60317;48.880;-0.862;2022-07-05T12:01:44;101331.84;;;21.00;49.12
72359;BME280;60317;48.880;-0.862;2022-07-05T12:04:11;101332.78;;;20.98;49.07
72359;BME280;60317;48.880;-0.862;2022-07-05T12:06:40;101334.53;;;21.00;49.02
72359;BME280;60317;48.880;-0.862;2022-07-05T12:09:07;101339.91;;;21.00;48.84
72359;BME280;60317;48.880;-0.862;2022-07-05T12:11:34;101335.25;;;21.02;49.04
72359;BME280;60317;48.880;-0.862;2022-07-05T12:14:01;101327.31;;;21.00;48.95
72359;BME280;60317;48.880;-0.862;2022-07-05T12:16:29;101328.16;;;21.01;48.77
72359;BME280;60317;48.880;-0.862;2022-07-05T12:18:56;101330.00;;;21.00;48.67
72359;BME280;60317;48.880;-0.862;2022-07-05T12:21:23;101330.09;;;20.98;48.79
72359;BME280;60317;48.880;-0.862;2022-07-05T12:23:50;101334.53;;;21.00;48.52
72359;BME280;60317;48.880;-0.862;2022-07-05T12:26:18;101326.47;;;21.00;48.86
72359;BME280;60317;48.880;-0.862;2022-07-05T12:28:45;101323.66;;;21.01;48.84
72359;BME280;60317;48.880;-0.862;2022-07-05T12:31:21;101321.09;;;21.00;48.73
72359;BME280;60317;48.880;-0.862;2022-07-05T12:33:50;101317.53;;;20.99;48.69
72359;BME280;60317;48.880;-0.862;2022-07-05T12:36:18;101315.81;;;20.98;48.91
72359;BME280;60317;48.880;-0.862;2022-07-05T12:38:45;101322.03;;;20.98;48.72
72359;BME280;60317;48.880;-0.862;2022-07-05T12:41:20;101319.25;;;21.00;48.67
72359;BME280;60317;48.880;-0.862;2022-07-05T12:43:50;101318.50;;;20.98;48.64
72359;BME280;60317;48.880;-0.862;2022-07-05T12:46:17;101319.34;;;20.98;48.66
72359;BME280;60317;48.880;-0.862;2022-07-05T12:48:43;101314.84;;;20.99;48.60
72359;BME280;60317;48.880;-0.862;2022-07-05T12:51:12;101309.59;;;20.97;48.80